createdAt,value
2023-05-23T00:00:56.428Z,39.93
2023-05-23T00:03:09.189Z,39.66
2023-05-23T00:05:19.466Z,39.64
2023-05-23T00:07:29.135Z,39.81
2023-05-23T00:09:38.463Z,39.95
2023-05-23T00:11:48.158Z,40.21
2023-05-23T00:13:57.950Z,40.29
2023-05-23T00:16:09.932Z,40.13
2023-05-23T00:18:31.063Z,40.03
2023-05-23T00:20:41.509Z,39.81
2023-05-23T00:22:50.953Z,39.80
2023-05-23T00:25:03.665Z,39.48
2023-05-23T00:27:13.287Z,39.24
2023-05-23T00:29:22.782Z,39.24
2023-05-23T00:31:33.320Z,39.35
2023-05-23T00:33:52.121Z,39.49
2023-05-23T00:36:04.896Z,39.64
2023-05-23T00:38:14.753Z,39.64
2023-05-23T00:40:26.978Z,39.72
2023-05-23T00:42:36.640Z,39.71
2023-05-23T00:44:46.098Z,39.55
2023-05-23T00:46:57.958Z,39.43
2023-05-23T00:49:11.456Z,39.55
2023-05-23T00:51:22.790Z,39.74
2023-05-23T00:53:32.589Z,39.73
2023-05-23T00:55:42.436Z,39.67
2023-05-23T00:57:52.427Z,39.79
2023-05-23T01:00:02.486Z,39.74
2023-05-23T01:02:15.252Z,39.62
2023-05-23T01:04:27.223Z,39.56
2023-05-23T01:06:37.242Z,39.51
2023-05-23T01:08:46.803Z,39.45
2023-05-23T01:11:04.029Z,39.41
2023-05-23T01:13:23.639Z,39.21
2023-05-23T01:15:43.989Z,39.15
2023-05-23T01:18:00.479Z,38.87
2023-05-23T01:20:13.482Z,38.79
2023-05-23T01:22:34.746Z,38.95
2023-05-23T01:24:53.932Z,38.93
2023-05-23T01:27:26.329Z,38.82
2023-05-23T01:29:40.296Z,38.80
2023-05-23T01:31:51.813Z,38.99
2023-05-23T01:34:02.820Z,39.13
2023-05-23T01:36:23.102Z,39.21
2023-05-23T01:38:34.166Z,39.10
2023-05-23T01:40:43.564Z,39.03
2023-05-23T01:42:53.790Z,38.84
2023-05-23T01:45:03.738Z,38.94
2023-05-23T01:47:14.544Z,39.10
2023-05-23T01:49:25.772Z,39.22
2023-05-23T01:51:34.525Z,39.21
2023-05-23T01:53:45.207Z,39.16
2023-05-23T01:55:55.334Z,39.31
2023-05-23T01:58:06.796Z,39.28
2023-05-23T02:00:17.349Z,39.24
2023-05-23T02:02:28.855Z,39.24
2023-05-23T02:04:38.731Z,39.28
2023-05-23T02:06:48.124Z,39.33
2023-05-23T02:08:57.394Z,39.47
2023-05-23T02:11:08.921Z,39.55
2023-05-23T02:13:21.953Z,39.73
2023-05-23T02:15:31.921Z,39.65
2023-05-23T02:17:41.826Z,39.70
2023-05-23T02:19:51.285Z,39.74
2023-05-23T02:22:01.369Z,39.58
2023-05-23T02:24:10.802Z,39.46
2023-05-23T02:26:23.400Z,39.45
2023-05-23T02:28:32.929Z,39.52
2023-05-23T02:30:42.309Z,39.46
2023-05-23T02:32:53.647Z,39.32
2023-05-23T02:35:03.445Z,39.29
2023-05-23T02:37:16.844Z,39.36
2023-05-23T02:39:26.125Z,39.54
2023-05-23T02:41:39.188Z,39.59
2023-05-23T02:43:52.338Z,39.51
2023-05-23T02:46:02.026Z,39.50
2023-05-23T02:48:12.339Z,39.55
2023-05-23T02:50:41.838Z,39.68
2023-05-23T02:52:52.088Z,39.67
2023-05-23T02:55:10.767Z,39.83
2023-05-23T02:57:25.656Z,40.01
2023-05-23T02:59:46.048Z,40.08
2023-05-23T03:01:55.606Z,40.13
2023-05-23T03:04:09.103Z,40.11
2023-05-23T03:06:22.779Z,40.10
2023-05-23T03:08:32.731Z,40.16
2023-05-23T03:10:42.054Z,40.31
2023-05-23T03:12:54.578Z,40.18
2023-05-23T03:15:04.440Z,40.34
2023-05-23T03:17:17.722Z,40.50
2023-05-23T03:19:27.841Z,40.54
2023-05-23T03:21:37.599Z,40.74
2023-05-23T03:23:53.296Z,40.78
2023-05-23T03:26:03.910Z,40.84
2023-05-23T03:28:17.182Z,40.99
2023-05-23T03:30:30.079Z,41.03
2023-05-23T03:32:39.565Z,40.96
2023-05-23T03:34:58.989Z,41.00
2023-05-23T03:37:08.560Z,40.91
2023-05-23T03:39:18.051Z,41.00
2023-05-23T03:41:27.756Z,41.04
2023-05-23T03:43:40.419Z,40.99
2023-05-23T03:45:49.986Z,41.22
2023-05-23T03:48:03.425Z,41.17
2023-05-23T03:50:22.740Z,41.26
2023-05-23T03:52:32.181Z,41.32
2023-05-23T03:54:43.009Z,41.44
2023-05-23T03:56:53.460Z,41.50
2023-05-23T03:59:06.148Z,41.47
2023-05-23T04:01:16.041Z,41.59
2023-05-23T04:03:26.619Z,41.59
2023-05-23T04:05:45.826Z,41.82
2023-05-23T04:07:55.851Z,41.91
2023-05-23T04:10:06.708Z,41.90
2023-05-23T04:12:25.345Z,42.12
2023-05-23T04:14:35.115Z,42.14
2023-05-23T04:16:45.253Z,42.37
2023-05-23T04:18:55.895Z,42.35
2023-05-23T04:21:09.160Z,42.43
2023-05-23T04:23:23.769Z,42.58
2023-05-23T04:25:36.917Z,42.73
2023-05-23T04:27:54.711Z,42.87
2023-05-23T04:30:14.702Z,42.87
2023-05-23T04:32:27.536Z,43.03
2023-05-23T04:34:41.580Z,43.20
2023-05-23T04:36:51.771Z,43.34
2023-05-23T04:39:04.855Z,43.43
2023-05-23T04:41:16.751Z,43.57
2023-05-23T04:43:44.823Z,43.81
2023-05-23T04:46:07.546Z,43.80
2023-05-23T04:48:21.965Z,43.95
2023-05-23T04:50:33.654Z,44.11
2023-05-23T04:52:43.650Z,44.35
2023-05-23T04:54:54.507Z,44.61
2023-05-23T04:57:04.482Z,44.82
2023-05-23T04:59:18.363Z,44.93
2023-05-23T05:01:28.426Z,45.11
2023-05-23T05:03:42.127Z,45.35
2023-05-23T05:06:12.157Z,45.67
2023-05-23T05:08:21.388Z,45.71
2023-05-23T05:10:31.422Z,46.11
2023-05-23T05:12:41.603Z,46.24
2023-05-23T05:14:53.602Z,46.24
2023-05-23T05:17:03.295Z,46.39
2023-05-23T05:19:20.095Z,46.55
2023-05-23T05:21:29.717Z,46.76
2023-05-23T05:23:39.771Z,46.66
2023-05-23T05:25:51.705Z,46.90
2023-05-23T05:28:03.491Z,46.93
2023-05-23T05:30:24.159Z,47.02
2023-05-23T05:32:38.550Z,47.17
2023-05-23T05:34:49.529Z,47.28
2023-05-23T05:37:00.799Z,47.45
2023-05-23T05:39:10.513Z,47.65
2023-05-23T05:41:19.862Z,47.69
2023-05-23T05:43:31.799Z,47.86
2023-05-23T05:45:41.484Z,47.96
2023-05-23T05:47:51.034Z,48.17
2023-05-23T05:50:02.065Z,48.29
2023-05-23T05:52:12.632Z,48.52
2023-05-23T05:54:22.553Z,48.54
2023-05-23T05:56:32.534Z,48.70
2023-05-23T05:58:46.054Z,48.77
2023-05-23T06:00:55.755Z,48.98
2023-05-23T06:03:08.574Z,49.08
2023-05-23T06:05:41.249Z,49.07
2023-05-23T06:07:51.965Z,49.34
2023-05-23T06:10:01.530Z,49.54
2023-05-23T06:12:11.611Z,49.58
2023-05-23T06:14:20.859Z,49.54
2023-05-23T06:16:30.928Z,49.75
2023-05-23T06:18:44.001Z,49.93
2023-05-23T06:20:53.629Z,50.04
2023-05-23T06:23:05.962Z,50.23
2023-05-23T06:25:15.452Z,50.25
2023-05-23T06:27:27.994Z,50.38
2023-05-23T06:29:37.796Z,50.29
2023-05-23T06:31:50.457Z,50.44
2023-05-23T06:34:02.893Z,50.62
2023-05-23T06:36:12.494Z,50.82
2023-05-23T06:38:22.221Z,50.70
2023-05-23T06:40:32.007Z,50.80
2023-05-23T06:42:42.006Z,50.92
2023-05-23T06:45:00.017Z,50.86
2023-05-23T06:47:10.013Z,50.92
2023-05-23T06:49:20.317Z,50.96
2023-05-23T06:51:32.918Z,51.17
2023-05-23T06:53:42.948Z,51.25
2023-05-23T06:56:01.858Z,51.15
2023-05-23T06:58:15.057Z,51.19
2023-05-23T07:00:28.766Z,51.49
2023-05-23T07:02:45.972Z,51.60
2023-05-23T07:04:55.842Z,51.49
2023-05-23T07:07:26.372Z,51.68
2023-05-23T07:09:52.564Z,51.79
2023-05-23T07:12:02.128Z,51.93
2023-05-23T07:14:17.021Z,51.92
2023-05-23T07:16:29.528Z,52.06
2023-05-23T07:18:43.428Z,52.12
2023-05-23T07:20:52.811Z,52.14
2023-05-23T07:23:12.474Z,52.30
2023-05-23T07:25:23.725Z,52.38
2023-05-23T07:27:33.003Z,52.48
2023-05-23T07:29:42.790Z,52.54
2023-05-23T07:31:53.912Z,52.58
2023-05-23T07:34:03.822Z,52.71
2023-05-23T07:36:19.603Z,52.81
2023-05-23T07:38:30.277Z,52.97
2023-05-23T07:40:58.911Z,53.04
2023-05-23T07:43:16.744Z,53.23
2023-05-23T07:45:26.422Z,53.28
2023-05-23T07:47:36.173Z,53.39
2023-05-23T07:49:46.094Z,53.57
2023-05-23T07:51:58.659Z,53.66
2023-05-23T07:54:11.559Z,53.71
2023-05-23T07:56:23.518Z,53.74
2023-05-23T07:58:32.856Z,53.79
2023-05-23T08:00:45.729Z,53.97
2023-05-23T08:03:01.805Z,54.07
2023-05-23T08:05:15.706Z,54.13
2023-05-23T08:07:25.387Z,54.28
2023-05-23T08:09:40.711Z,54.36
2023-05-23T08:11:50.746Z,54.51
2023-05-23T08:14:11.108Z,54.65
2023-05-23T08:16:29.931Z,54.80
2023-05-23T08:18:40.241Z,54.88
2023-05-23T08:20:49.601Z,54.92
2023-05-23T08:22:59.224Z,54.95
2023-05-23T08:25:09.770Z,55.16
2023-05-23T08:27:21.849Z,55.36
2023-05-23T08:29:35.479Z,55.44
2023-05-23T08:31:55.004Z,55.55
2023-05-23T08:34:04.621Z,55.58
2023-05-23T08:36:14.164Z,55.52
2023-05-23T08:38:25.148Z,55.89
2023-05-23T08:40:53.601Z,55.69
2023-05-23T08:43:04.225Z,55.89
2023-05-23T08:45:14.942Z,55.80
2023-05-23T08:47:28.106Z,56.01
2023-05-23T08:49:42.674Z,56.13
2023-05-23T08:51:58.853Z,56.47
2023-05-23T08:54:13.506Z,56.53
2023-05-23T08:56:24.775Z,56.48
2023-05-23T08:58:35.899Z,56.56
2023-05-23T09:00:46.622Z,56.81
2023-05-23T09:03:00.786Z,56.68
2023-05-23T09:05:31.720Z,56.89
2023-05-23T09:07:41.053Z,56.66
2023-05-23T09:09:51.337Z,56.75
2023-05-23T09:12:05.376Z,57.12
2023-05-23T09:14:18.381Z,57.17
2023-05-23T09:16:33.955Z,57.20
2023-05-23T09:18:47.143Z,57.09
2023-05-23T09:20:57.971Z,57.13
2023-05-23T09:23:10.011Z,57.51
2023-05-23T09:25:22.115Z,57.17
2023-05-23T09:27:36.504Z,57.50
2023-05-23T09:29:47.765Z,57.84
2023-05-23T09:32:12.126Z,57.72
2023-05-23T09:34:24.852Z,57.52
2023-05-23T09:36:48.991Z,57.84
2023-05-23T09:39:00.087Z,57.70
2023-05-23T09:41:13.983Z,57.99
2023-05-23T09:43:25.882Z,58.05
2023-05-23T09:45:35.648Z,58.00
2023-05-23T09:47:53.459Z,58.26
2023-05-23T09:50:02.951Z,58.28
2023-05-23T09:52:12.959Z,58.57
2023-05-23T09:54:22.364Z,58.45
2023-05-23T09:56:31.947Z,58.52
2023-05-23T09:58:45.749Z,58.48
2023-05-23T10:03:36.893Z,58.53
2023-05-23T10:06:12.537Z,58.68
2023-05-23T10:08:30.301Z,58.76
2023-05-23T10:11:07.945Z,58.96
2023-05-23T10:13:30.182Z,59.26
2023-05-23T10:15:44.555Z,59.07
2023-05-23T10:18:13.035Z,59.13
2023-05-23T10:20:27.028Z,59.43
2023-05-23T10:22:40.837Z,59.51
2023-05-23T10:24:50.550Z,59.53
2023-05-23T10:27:00.108Z,59.62
2023-05-23T10:29:10.644Z,59.61
2023-05-23T10:31:22.431Z,59.61
2023-05-23T10:33:34.828Z,59.38
2023-05-23T10:35:54.245Z,59.30
2023-05-23T10:38:10.574Z,59.53
2023-05-23T10:40:30.406Z,59.93
2023-05-23T10:42:57.904Z,59.73
2023-05-23T10:45:21.769Z,60.18
2023-05-23T10:47:31.852Z,59.92
2023-05-23T10:49:46.423Z,59.95
2023-05-23T10:51:56.337Z,60.04
2023-05-23T10:54:12.435Z,60.23
2023-05-23T10:56:41.999Z,60.20
2023-05-23T10:59:21.480Z,60.28
2023-05-23T11:01:30.874Z,60.52
2023-05-23T11:03:54.006Z,60.61
2023-05-23T11:06:06.069Z,60.56
2023-05-23T11:08:18.128Z,60.67
2023-05-23T11:10:27.754Z,60.49
2023-05-23T11:12:45.217Z,60.86
2023-05-23T11:14:58.325Z,60.73
2023-05-23T11:17:19.901Z,61.02
2023-05-23T11:19:38.682Z,61.21
2023-05-23T11:22:10.239Z,61.00
2023-05-23T11:24:19.436Z,61.30
2023-05-23T11:26:35.621Z,61.21
2023-05-23T11:29:01.791Z,61.23
2023-05-23T11:31:11.994Z,61.51
2023-05-23T11:33:21.696Z,61.75
2023-05-23T11:35:34.494Z,61.78
2023-05-23T11:37:45.312Z,61.97
2023-05-23T11:39:54.519Z,62.32
2023-05-23T11:42:07.992Z,62.36
2023-05-23T11:44:20.639Z,62.66
2023-05-23T11:46:30.564Z,62.97
2023-05-23T11:48:46.189Z,63.01
2023-05-23T11:50:58.599Z,63.28
2023-05-23T11:53:08.669Z,62.87
2023-05-23T11:55:18.507Z,63.15
2023-05-23T11:57:28.326Z,63.22
2023-05-23T11:59:38.183Z,63.36
2023-05-23T12:01:47.705Z,63.23
2023-05-23T12:04:00.481Z,63.22
2023-05-23T12:06:12.730Z,63.14
2023-05-23T12:08:23.495Z,63.37
2023-05-23T12:10:32.861Z,63.21
2023-05-23T12:12:44.272Z,63.06
2023-05-23T12:14:59.558Z,63.10
2023-05-23T12:17:21.662Z,63.26
2023-05-23T12:19:31.433Z,63.15
2023-05-23T12:21:48.254Z,63.43
2023-05-23T12:24:01.747Z,63.30
2023-05-23T12:26:11.715Z,63.41
2023-05-23T12:28:36.046Z,63.23
2023-05-23T12:31:13.108Z,63.45
2023-05-23T12:33:23.831Z,63.32
2023-05-23T12:35:33.156Z,63.61
2023-05-23T12:37:52.137Z,63.43
2023-05-23T12:40:14.610Z,63.61
2023-05-23T12:42:23.996Z,63.80
2023-05-23T12:44:35.486Z,63.65
2023-05-23T12:46:44.997Z,63.88
2023-05-23T12:48:55.297Z,63.80
2023-05-23T12:51:05.399Z,63.69
2023-05-23T12:53:15.018Z,63.75
2023-05-23T12:55:24.809Z,63.93
2023-05-23T12:57:38.452Z,64.21
2023-05-23T13:00:10.350Z,64.07
2023-05-23T13:02:20.150Z,64.14
2023-05-23T13:04:41.153Z,64.32
2023-05-23T13:06:50.258Z,64.13
2023-05-23T13:08:59.709Z,64.62
2023-05-23T13:11:09.559Z,64.53
2023-05-23T13:13:18.901Z,64.45
2023-05-23T13:15:29.648Z,64.49
2023-05-23T13:17:44.406Z,64.69
2023-05-23T13:20:01.457Z,64.73
2023-05-23T13:22:11.899Z,64.72
2023-05-23T13:24:24.272Z,64.90
2023-05-23T13:26:37.117Z,64.80
2023-05-23T13:28:49.805Z,64.75
2023-05-23T13:30:58.966Z,65.00
2023-05-23T13:33:08.497Z,64.81
2023-05-23T13:35:17.914Z,64.74
2023-05-23T13:37:27.296Z,64.98
2023-05-23T13:39:40.008Z,64.86
2023-05-23T13:41:49.386Z,65.06
2023-05-23T13:44:02.242Z,65.11
2023-05-23T13:46:11.906Z,64.78
2023-05-23T13:48:21.488Z,65.05
2023-05-23T13:50:30.962Z,65.20
2023-05-23T13:53:00.324Z,65.34
2023-05-23T13:55:11.494Z,65.13
2023-05-23T13:57:20.956Z,64.90
2023-05-23T13:59:30.438Z,64.87
2023-05-23T14:01:39.854Z,65.03
2023-05-23T14:03:49.244Z,64.93
2023-05-23T14:05:58.929Z,64.84
2023-05-23T14:08:13.786Z,65.14
2023-05-23T14:10:21.450Z,64.91
2023-05-23T14:12:30.885Z,65.02
2023-05-23T14:14:40.191Z,65.39
2023-05-23T14:16:54.617Z,64.97
2023-05-23T14:19:04.078Z,64.91
2023-05-23T14:21:13.576Z,64.99
2023-05-23T14:23:43.252Z,64.63
2023-05-23T14:26:12.596Z,64.73
2023-05-23T14:28:24.887Z,64.65
2023-05-23T14:30:50.628Z,64.57
2023-05-23T14:33:11.270Z,64.62
2023-05-23T14:35:22.777Z,64.23
2023-05-23T14:37:35.131Z,64.28
2023-05-23T14:39:44.683Z,64.19
2023-05-23T14:42:05.235Z,64.02
2023-05-23T14:44:14.719Z,64.05
2023-05-23T14:46:24.061Z,63.84
2023-05-23T14:48:47.829Z,63.72
2023-05-23T14:51:02.269Z,63.70
2023-05-23T14:53:31.610Z,63.64
2023-05-23T14:55:44.444Z,63.59
2023-05-23T14:57:54.662Z,63.58
2023-05-23T15:00:06.137Z,63.22
2023-05-23T15:02:24.860Z,63.25
2023-05-23T15:04:34.499Z,63.21
2023-05-23T15:06:44.439Z,63.32
2023-05-23T15:08:57.203Z,63.59
2023-05-23T15:11:07.301Z,63.49
2023-05-23T15:13:19.712Z,63.51
2023-05-23T15:15:38.181Z,63.34
2023-05-23T15:17:51.299Z,63.24
2023-05-23T15:20:02.291Z,63.05
2023-05-23T15:22:29.845Z,62.92
2023-05-23T15:24:51.312Z,62.96
2023-05-23T15:27:22.566Z,62.81
2023-05-23T15:29:33.677Z,62.55
2023-05-23T15:31:45.929Z,62.35
2023-05-23T15:34:15.823Z,62.19
2023-05-23T15:36:25.288Z,62.18
2023-05-23T15:38:34.643Z,62.12
2023-05-23T15:40:44.380Z,61.87
2023-05-23T15:43:03.100Z,61.77
2023-05-23T15:45:14.300Z,61.77
2023-05-23T15:47:43.975Z,61.73
2023-05-23T15:49:56.217Z,61.39
2023-05-23T15:52:16.048Z,61.32
2023-05-23T15:54:25.442Z,61.32
2023-05-23T15:56:34.562Z,61.38
2023-05-23T15:58:43.927Z,61.16
2023-05-23T16:01:03.356Z,60.86
2023-05-23T16:03:13.462Z,60.88
2023-05-23T16:05:33.605Z,60.76
2023-05-23T16:07:52.070Z,60.49
2023-05-23T16:10:14.108Z,60.40
2023-05-23T16:12:23.829Z,60.32
2023-05-23T16:14:33.760Z,59.82
2023-05-23T16:16:44.022Z,59.59
2023-05-23T16:18:53.692Z,59.23
2023-05-23T16:21:06.249Z,59.34
2023-05-23T16:23:26.163Z,59.51
2023-05-23T16:25:35.599Z,59.16
2023-05-23T16:27:50.797Z,59.02
2023-05-23T16:30:00.428Z,58.80
2023-05-23T16:32:13.541Z,58.65
2023-05-23T16:34:22.902Z,58.75
2023-05-23T16:36:43.968Z,58.06
2023-05-23T16:39:02.873Z,57.85
2023-05-23T16:41:12.525Z,57.56
2023-05-23T16:43:24.888Z,57.21
2023-05-23T16:45:34.253Z,56.78
2023-05-23T16:47:44.038Z,56.71
2023-05-23T16:49:53.213Z,56.77
2023-05-23T16:52:05.467Z,56.59
2023-05-23T16:54:15.396Z,56.52
2023-05-23T16:56:24.816Z,55.93
2023-05-23T16:58:36.359Z,55.65
2023-05-23T17:00:45.909Z,55.56
2023-05-23T17:02:55.435Z,55.64
2023-05-23T17:05:16.337Z,55.45
2023-05-23T17:07:25.568Z,55.47
2023-05-23T17:09:39.367Z,54.98
2023-05-23T17:11:51.736Z,55.08
2023-05-23T17:14:01.256Z,55.19
2023-05-23T17:16:14.164Z,55.09
2023-05-23T17:18:23.741Z,55.08
2023-05-23T17:20:43.955Z,55.18
2023-05-23T17:23:13.474Z,55.05
2023-05-23T17:25:27.475Z,55.16
2023-05-23T17:27:38.133Z,55.24
2023-05-23T17:29:47.718Z,55.01
2023-05-23T17:31:57.102Z,54.72
2023-05-23T17:34:18.254Z,54.74
2023-05-23T17:36:27.404Z,54.81
2023-05-23T17:38:56.751Z,54.59
2023-05-23T17:41:27.124Z,54.42
2023-05-23T17:43:47.560Z,54.32
2023-05-23T17:46:00.439Z,54.10
2023-05-23T17:48:12.924Z,53.83
2023-05-23T17:50:23.450Z,53.72
2023-05-23T17:52:43.035Z,53.73
2023-05-23T17:54:52.567Z,53.83
2023-05-23T17:57:12.411Z,53.82
2023-05-23T17:59:21.936Z,53.58
2023-05-23T18:01:31.871Z,53.10
2023-05-23T18:03:45.207Z,52.89
2023-05-23T18:06:07.645Z,52.58
2023-05-23T18:08:20.309Z,52.08
2023-05-23T18:10:49.797Z,51.77
2023-05-23T18:13:04.949Z,51.46
2023-05-23T18:15:34.343Z,51.24
2023-05-23T18:17:43.998Z,51.11
2023-05-23T18:20:14.359Z,50.94
2023-05-23T18:22:43.734Z,51.05
2023-05-23T18:24:56.345Z,51.23
2023-05-23T18:27:26.348Z,51.51
2023-05-23T18:29:38.890Z,51.51
2023-05-23T18:31:57.178Z,51.17
2023-05-23T18:34:12.345Z,51.10
2023-05-23T18:36:33.388Z,50.92
2023-05-23T18:38:46.606Z,50.84
2023-05-23T18:40:55.862Z,50.84
2023-05-23T18:43:26.189Z,50.71
2023-05-23T18:45:37.123Z,50.84
2023-05-23T18:47:56.457Z,51.02
2023-05-23T18:50:10.728Z,51.01
2023-05-23T18:52:31.057Z,51.14
2023-05-23T18:54:53.860Z,50.99
2023-05-23T18:57:03.601Z,50.86
2023-05-23T18:59:16.124Z,50.73
2023-05-23T19:01:25.587Z,50.51
2023-05-23T19:03:37.463Z,50.35
2023-05-23T19:05:50.720Z,50.50
2023-05-23T19:08:03.753Z,50.17
2023-05-23T19:10:14.397Z,50.19
2023-05-23T19:12:24.029Z,50.12
2023-05-23T19:14:38.706Z,50.07
2023-05-23T19:17:00.638Z,49.78
2023-05-23T19:19:39.664Z,50.15
2023-05-23T19:21:49.222Z,50.37
2023-05-23T19:23:58.619Z,50.19
2023-05-23T19:26:08.376Z,49.99
2023-05-23T19:28:21.070Z,49.85
2023-05-23T19:30:30.598Z,49.69
2023-05-23T19:32:40.091Z,49.68
2023-05-23T19:34:49.790Z,49.72
2023-05-23T19:37:01.051Z,49.70
2023-05-23T19:39:10.309Z,49.63
2023-05-23T19:41:20.330Z,49.42
2023-05-23T19:43:29.685Z,49.02
2023-05-23T19:45:39.102Z,49.23
2023-05-23T19:47:48.516Z,49.39
2023-05-23T19:49:58.035Z,49.53
2023-05-23T19:52:08.053Z,49.60
2023-05-23T19:54:17.527Z,49.60
2023-05-23T19:56:27.686Z,49.38
2023-05-23T19:58:37.200Z,49.23
2023-05-23T20:00:57.678Z,49.04
2023-05-23T20:03:07.204Z,48.99
2023-05-23T20:05:17.689Z,48.86
2023-05-23T20:07:27.207Z,48.62
2023-05-23T20:09:36.747Z,48.46
2023-05-23T20:11:49.556Z,48.44
2023-05-23T20:13:58.817Z,48.22
2023-05-23T20:16:09.334Z,47.76
2023-05-23T20:18:19.101Z,47.75
2023-05-23T20:20:28.767Z,47.90
2023-05-23T20:22:38.084Z,47.57
2023-05-23T20:24:48.113Z,47.49
2023-05-23T20:27:01.302Z,47.39
2023-05-23T20:29:10.597Z,46.83
2023-05-23T20:31:21.362Z,46.31
2023-05-23T20:33:40.753Z,46.06
2023-05-23T20:35:50.601Z,45.81
2023-05-23T20:37:59.895Z,45.77
2023-05-23T20:40:11.258Z,45.52
2023-05-23T20:42:21.126Z,45.52
2023-05-23T20:44:30.556Z,45.41
2023-05-23T20:46:43.969Z,45.31
2023-05-23T20:48:57.798Z,44.53
2023-05-23T20:51:07.958Z,44.70
2023-05-23T20:53:17.370Z,44.65
2023-05-23T20:55:28.970Z,44.67
2023-05-23T20:57:37.416Z,44.56
2023-05-23T20:59:46.830Z,44.71
2023-05-23T21:01:56.600Z,44.76
2023-05-23T21:04:06.332Z,44.71
2023-05-23T21:06:15.725Z,44.58
2023-05-23T21:08:25.339Z,44.49
2023-05-23T21:10:34.599Z,44.36
2023-05-23T21:12:49.576Z,44.30
2023-05-23T21:14:59.172Z,44.02
2023-05-23T21:17:08.945Z,43.75
2023-05-23T21:19:18.686Z,43.84
2023-05-23T21:21:28.280Z,43.66
2023-05-23T21:23:38.205Z,43.89
2023-05-23T21:25:47.657Z,43.73
2023-05-23T21:27:57.062Z,43.42
2023-05-23T21:30:06.899Z,43.28
2023-05-23T21:32:16.868Z,42.80
2023-05-23T21:34:26.257Z,42.69
2023-05-23T21:36:35.544Z,42.88
2023-05-23T21:38:44.935Z,42.65
2023-05-23T21:40:54.715Z,42.80
2023-05-23T21:43:04.491Z,43.03
2023-05-23T21:45:17.226Z,42.73
2023-05-23T21:47:26.606Z,42.42
2023-05-23T21:49:35.961Z,42.41
2023-05-23T21:51:45.232Z,42.35
2023-05-23T21:53:54.798Z,42.41
2023-05-23T21:56:04.186Z,42.35
2023-05-23T21:58:13.241Z,42.17
2023-05-23T22:00:24.200Z,42.09
2023-05-23T22:02:34.588Z,42.33
2023-05-23T22:04:45.262Z,42.40
2023-05-23T22:06:54.677Z,42.46
2023-05-23T22:09:04.025Z,42.60
2023-05-23T22:11:13.234Z,42.60
2023-05-23T22:13:22.550Z,42.36
2023-05-23T22:15:32.835Z,42.35
2023-05-23T22:17:43.891Z,42.34
2023-05-23T22:19:53.444Z,42.55
2023-05-23T22:22:02.960Z,42.02
2023-05-23T22:24:12.364Z,41.66
2023-05-23T22:26:22.280Z,41.33
2023-05-23T22:28:35.920Z,41.30
2023-05-23T22:30:45.238Z,41.20
2023-05-23T22:32:58.180Z,40.94
2023-05-23T22:35:08.113Z,40.69
2023-05-23T22:37:20.859Z,40.77
2023-05-23T22:39:30.286Z,40.83
2023-05-23T22:41:39.568Z,40.59
2023-05-23T22:43:49.077Z,40.35
2023-05-23T22:45:58.635Z,40.26
2023-05-23T22:48:18.711Z,40.56
2023-05-23T22:50:27.976Z,40.41
2023-05-23T22:52:40.752Z,40.36
2023-05-23T22:54:54.382Z,40.38
2023-05-23T22:57:03.973Z,40.19
2023-05-23T22:59:13.218Z,39.93
2023-05-23T23:01:22.697Z,40.08
2023-05-23T23:03:32.593Z,40.15
2023-05-23T23:05:42.414Z,40.03
2023-05-23T23:07:52.099Z,40.04
2023-05-23T23:10:05.543Z,40.08
2023-05-23T23:12:14.869Z,40.04
2023-05-23T23:14:27.720Z,39.96
2023-05-23T23:16:40.039Z,39.82
2023-05-23T23:18:59.546Z,39.81
2023-05-23T23:21:11.843Z,39.65
2023-05-23T23:23:24.638Z,39.81
2023-05-23T23:25:33.922Z,39.77
2023-05-23T23:27:46.514Z,39.83
2023-05-23T23:29:56.355Z,39.67
2023-05-23T23:32:05.781Z,39.33
2023-05-23T23:34:15.395Z,39.55
2023-05-23T23:36:24.716Z,39.24
2023-05-23T23:38:34.289Z,39.36
2023-05-23T23:40:45.869Z,39.17
2023-05-23T23:42:53.402Z,39.18
2023-05-23T23:45:03.033Z,39.47
2023-05-23T23:47:12.920Z,39.50
2023-05-23T23:49:22.365Z,39.62
2023-05-23T23:51:32.534Z,39.55
2023-05-23T23:53:42.139Z,39.49
2023-05-23T23:55:52.199Z,39.52
2023-05-23T23:58:01.553Z,39.56
